Time;durP1;ratioP1;P1;durP2;ratioP2;P2;SDS_P1;SDS_P2;PMS_P1;PMS_P2;Temp;Humidity;BMP_temperature;BMP_pressure;BME280_temperature;BME280_humidity;BME280_pressure;Samples;Min_cycle;Max_cycle;Signal;HPM_P1;HPM_P2
2022/11/04 00:01:44;;;;;;;32.67;23.13;;;;;;;7.55;100.00;100404.71;1469452;87;21386;-84
2022/11/04 00:04:13;;;;;;;34.63;22.97;;;;;;;7.51;100.00;100397.56;1498293;87;22441;-84
2022/11/04 00:06:40;;;;;;;28.00;21.77;;;;;;;7.50;100.00;100397.19;1471335;87;21419;-84
2022/11/04 00:09:10;;;;;;;33.53;21.90;;;;;;;7.51;100.00;100392.29;1489166;87;22409;-82
2022/11/04 00:14:22;;;;;;;30.60;20.03;;;;;;;7.52;100.00;100391.31;1473378;87;21530;-85
2022/11/04 00:30:34;;;;;;;36.77;24.00;;;;;;;7.36;100.00;100392.23;1486620;87;22230;-84
2022/11/04 00:35:50;;;;;;;29.47;20.77;;;;;;;7.39;100.00;100378.81;1484193;87;21507;-83
2022/11/04 00:38:17;;;;;;;26.68;19.20;;;;;;;7.39;100.00;100377.04;1469178;87;21639;-83
2022/11/04 00:40:44;;;;;;;26.00;18.67;;;;;;;7.39;100.00;100383.63;1488183;87;22505;-82
2022/11/04 00:43:11;;;;;;;30.60;19.53;;;;;;;7.33;100.00;100378.01;1489338;87;21529;-79
2022/11/04 00:45:39;;;;;;;31.37;20.07;;;;;;;7.29;100.00;100376.61;1471284;87;21449;-81
2022/11/04 00:48:05;;;;;;;28.87;21.73;;;;;;;7.27;100.00;100366.67;1464932;87;21735;-80
2022/11/04 00:50:31;;;;;;;31.00;21.77;;;;;;;7.23;100.00;100364.30;1486634;86;21354;-80
2022/11/04 00:53:01;;;;;;;30.07;20.83;;;;;;;7.19;100.00;100366.85;1492523;86;22331;-81
2022/11/04 00:55:28;;;;;;;25.32;17.55;;;;;;;7.19;100.00;100360.27;1476095;87;21530;-81
2022/11/04 00:57:56;;;;;;;30.07;19.77;;;;;;;7.20;100.00;100348.77;1488117;87;22440;-81
2022/11/04 01:00:22;;;;;;;24.23;17.17;;;;;;;7.22;100.00;100347.30;1489249;87;22344;-81
2022/11/04 01:02:48;;;;;;;29.10;18.63;;;;;;;7.26;100.00;100340.84;1487449;87;21463;-81
2022/11/04 01:05:15;;;;;;;33.83;18.97;;;;;;;7.27;100.00;100329.83;1486985;87;21448;-82
2022/11/04 01:07:41;;;;;;;28.60;19.70;;;;;;;7.24;100.00;100336.17;1487472;87;22254;-81
2022/11/04 01:10:08;;;;;;;27.17;19.30;;;;;;;7.20;100.00;100326.88;1497876;87;21406;-82
2022/11/04 01:12:34;;;;;;;28.33;19.37;;;;;;;7.14;100.00;100329.54;1495596;87;21407;-81
2022/11/04 01:15:00;;;;;;;28.37;20.20;;;;;;;7.12;100.00;100331.45;1482205;87;21400;-81
2022/11/04 01:17:26;;;;;;;28.90;19.53;;;;;;;7.08;100.00;100324.80;1483910;87;21415;-81
2022/11/04 01:19:52;;;;;;;26.07;20.20;;;;;;;7.04;100.00;100313.32;1487508;87;22387;-80
2022/11/04 01:22:18;;;;;;;26.93;19.23;;;;;;;7.03;100.00;100313.81;1483355;86;21459;-82
2022/11/04 01:24:44;;;;;;;31.27;18.43;;;;;;;7.04;100.00;100311.52;1492316;87;22380;-81
2022/11/04 01:27:10;;;;;;;24.43;18.70;;;;;;;7.04;100.00;100314.15;1477707;87;21443;-80
2022/11/04 01:29:36;;;;;;;31.97;20.23;;;;;;;6.98;100.00;100298.88;1489794;86;21451;-82
2022/11/04 01:32:02;;;;;;;29.50;19.27;;;;;;;6.95;100.00;100292.55;1495118;86;22412;-81
2022/11/04 01:34:28;;;;;;;29.87;20.60;;;;;;;6.91;100.00;100281.94;1487559;86;21499;-82
2022/11/04 01:36:54;;;;;;;28.43;20.97;;;;;;;6.89;100.00;100274.65;1470964;87;21404;-83
2022/11/04 01:39:21;;;;;;;33.07;21.47;;;;;;;6.85;100.00;100273.22;1491194;87;21434;-83
2022/11/04 01:41:47;;;;;;;27.10;19.20;;;;;;;6.82;100.00;100265.58;1482506;87;21412;-84
2022/11/04 01:44:45;;;;;;;27.33;20.23;;;;;;;6.81;100.00;100265.23;1485747;87;21384;-83
2022/11/04 01:47:25;;;;;;;25.13;18.80;;;;;;;6.78;100.00;100269.78;1471781;87;21440;-83
2022/11/04 01:50:03;;;;;;;25.10;19.02;;;;;;;6.77;100.00;100257.60;1481194;87;21433;-83
2022/11/04 01:52:47;;;;;;;25.30;18.20;;;;;;;6.77;100.00;100256.29;1490530;87;21398;-83
2022/11/04 01:55:19;;;;;;;27.00;18.07;;;;;;;6.73;100.00;100253.57;1488917;87;21369;-83
2022/11/04 01:57:48;;;;;;;25.80;19.37;;;;;;;6.66;100.00;100253.70;1482812;87;21480;-83
2022/11/04 02:00:15;;;;;;;28.33;19.80;;;;;;;6.67;100.00;100254.54;1496418;86;21384;-83
2022/11/04 02:03:05;;;;;;;26.87;20.17;;;;;;;6.66;100.00;100243.19;1493539;87;21552;-82
2022/11/04 02:05:32;;;;;;;26.90;19.07;;;;;;;6.66;100.00;100233.98;1487646;87;21471;-81
2022/11/04 02:08:01;;;;;;;26.93;20.03;;;;;;;6.65;100.00;100222.30;1483460;87;21458;-80
2022/11/04 02:10:30;;;;;;;25.50;17.30;;;;;;;6.61;100.00;100212.48;1485526;87;21451;-80
2022/11/04 02:12:59;;;;;;;28.20;18.53;;;;;;;6.58;100.00;100207.48;1481043;87;21515;-82
2022/11/04 02:15:43;;;;;;;24.70;18.03;;;;;;;6.55;100.00;100210.37;1480167;87;21344;-81
2022/11/04 02:18:48;;;;;;;30.97;18.70;;;;;;;6.52;100.00;100209.31;1488358;87;21465;-79
2022/11/04 02:21:52;;;;;;;32.23;20.30;;;;;;;6.50;100.00;100206.83;1483263;87;21581;-81
2022/11/04 02:24:47;;;;;;;28.00;18.40;;;;;;;6.55;100.00;100213.00;1480034;87;21441;-81
2022/11/04 02:27:50;;;;;;;28.57;20.47;;;;;;;6.53;100.00;100207.02;1463423;89;21545;-81
2022/11/04 02:30:18;;;;;;;30.77;20.47;;;;;;;6.53;100.00;100207.89;1483162;87;21392;-80
2022/11/04 02:33:11;;;;;;;28.60;20.20;;;;;;;6.52;100.00;100204.88;1490927;87;21551;-79
2022/11/04 02:36:03;;;;;;;28.50;20.43;;;;;;;6.53;100.00;100191.25;1482913;87;21502;-80
2022/11/04 02:38:53;;;;;;;24.70;17.83;;;;;;;6.55;100.00;100193.28;1484352;87;21451;-82
2022/11/04 02:41:43;;;;;;;28.10;20.50;;;;;;;6.55;100.00;100181.45;1472494;87;22329;-83
2022/11/04 02:44:20;;;;;;;32.73;18.60;;;;;;;6.54;100.00;100170.10;1469497;87;21451;-82
2022/11/04 02:47:08;;;;;;;30.53;19.27;;;;;;;6.56;100.00;100173.94;1457509;87;21641;-82
2022/11/04 02:49:42;;;;;;;27.40;20.40;;;;;;;6.58;100.00;100171.16;1493743;86;21459;-82
2022/11/04 02:52:13;;;;;;;32.17;20.43;;;;;;;6.58;100.00;100166.73;1492619;87;21407;-81
2022/11/04 02:54:47;;;;;;;25.77;19.40;;;;;;;6.58;100.00;100154.89;1491327;87;21399;-82
2022/11/04 02:57:18;;;;;;;29.83;20.87;;;;;;;6.54;100.00;100162.70;1490753;87;21488;-82
2022/11/04 02:59:50;;;;;;;;;;;;;;;6.48;100.00;100163.22;1492844;87;22463;-82
2022/11/04 03:02:22;;;;;;;28.03;20.27;;;;;;;6.43;100.00;100162.76;1486596;87;20751;-83
2022/11/04 03:04:51;;;;;;;30.50;20.17;;;;;;;6.41;100.00;100156.30;1485086;87;22314;-82
2022/11/04 03:07:23;;;;;;;31.70;20.80;;;;;;;6.42;100.00;100154.53;1471690;87;21480;-82
2022/11/04 03:09:54;;;;;;;28.10;18.00;;;;;;;6.45;100.00;100149.84;1492818;87;21333;-83
2022/11/04 03:12:25;;;;;;;24.60;18.93;;;;;;;6.46;100.00;100151.98;1486139;87;21406;-82
2022/11/04 03:14:57;;;;;;;25.67;18.90;;;;;;;6.48;100.00;100156.64;1479649;86;21611;-83
2022/11/04 03:17:43;;;;;;;31.90;19.20;;;;;;;6.48;100.00;100159.27;1489618;87;22083;-81
2022/11/04 03:20:14;;;;;;;31.93;19.27;;;;;;;6.46;100.00;100159.88;1485688;87;21399;-81
2022/11/04 03:22:40;;;;;;;;;;;;;;;6.44;100.00;100173.61;1498039;87;21433;-81
2022/11/04 03:25:09;;;;;;;29.90;19.57;;;;;;;6.37;100.00;100185.61;1493408;87;20306;-81
2022/11/04 03:27:58;;;;;;;33.90;22.47;;;;;;;6.31;100.00;100182.52;1503050;86;21480;-82
2022/11/04 03:30:25;;;;;;;31.47;21.10;;;;;;;6.30;100.00;100180.86;1463648;87;21607;-82
2022/11/04 03:33:23;;;;;;;28.77;20.13;;;;;;;6.32;100.00;100186.80;1485222;87;21604;-81
2022/11/04 03:35:49;;;;;;;33.87;21.70;;;;;;;6.36;100.00;100183.92;1487078;87;21442;-81
2022/11/04 03:38:16;;;;;;;28.33;18.67;;;;;;;6.40;100.00;100170.90;1490971;86;21516;-80
2022/11/04 03:40:42;;;;;;;31.53;19.83;;;;;;;6.42;100.00;100163.24;1492786;86;21369;-83
2022/11/04 03:43:12;;;;;;;31.03;20.13;;;;;;;6.46;100.00;100159.88;1481093;87;21391;-81
2022/11/04 03:45:40;;;;;;;;;;;;;;;6.45;100.00;100162.16;1474267;87;21384;-82
2022/11/04 03:48:07;;;;;;;37.17;23.20;;;;;;;6.45;100.00;100147.70;1481793;87;20388;-81
2022/11/04 03:50:46;;;;;;;32.40;21.77;;;;;;;6.45;100.00;100145.90;1484151;87;21575;-81
2022/11/04 03:53:16;;;;;;;35.87;23.03;;;;;;;6.43;100.00;100146.98;1479397;87;21377;-81
2022/11/04 03:56:39;;;;;;;31.57;20.97;;;;;;;6.37;100.00;100144.38;1489490;87;21692;-81
2022/11/04 03:59:11;;;;;;;31.73;21.97;;;;;;;6.36;100.00;100142.72;1480819;86;21418;-81
2022/11/04 04:01:48;;;;;;;33.90;21.20;;;;;;;6.36;100.00;100145.81;1482370;87;21472;-81
2022/11/04 04:04:38;;;;;;;33.07;19.97;;;;;;;6.32;100.00;100153.95;1490926;86;21399;-80
2022/11/04 04:07:16;;;;;;;41.03;22.63;;;;;;;6.37;100.00;100152.27;1490560;87;21375;-80
2022/11/04 04:09:47;;;;;;;33.53;20.70;;;;;;;6.41;100.00;100127.87;1490719;87;21486;-81
2022/11/04 04:12:32;;;;;;;;;;;;;;;6.44;100.00;100124.49;1490903;87;22328;-81
2022/11/04 04:15:12;;;;;;;40.73;21.27;;;;;;;6.43;100.00;100122.02;1487858;87;20297;-81
2022/11/04 04:17:56;;;;;;;34.85;21.95;;;;;;;6.41;100.00;100126.06;1488621;87;21715;-81
2022/11/04 04:20:26;;;;;;;33.50;20.50;;;;;;;6.38;100.00;100122.37;1498508;87;21749;-81
2022/11/04 04:27:29;;;;;;;30.85;19.87;;;;;;;6.36;100.00;100128.72;1470427;87;22095;-83
2022/11/04 04:28:21;;;;;;;33.67;19.73;;;;;;;6.32;100.00;100138.66;1492294;87;21455;-84
2022/11/04 04:30:47;;;;;;;32.60;20.87;;;;;;;6.35;100.00;100127.06;1493105;87;21458;-84
2022/11/04 04:33:18;;;;;;;27.10;19.37;;;;;;;6.38;100.00;100121.55;1497562;87;21532;-83
2022/11/04 04:35:52;;;;;;;28.27;19.15;;;;;;;6.42;100.00;100116.41;1490588;86;21385;-84
2022/11/04 04:47:21;;;;;;;29.17;21.07;;;;;;;6.30;100.00;100120.86;1485391;87;21599;-84
2022/11/04 04:50:00;;;;;;;34.77;21.03;;;;;;;6.26;100.00;100115.04;1462250;88;21731;-85
2022/11/04 04:52:31;;;;;;;30.83;20.03;;;;;;;6.21;100.00;100113.75;1471932;87;22375;-84
2022/11/04 04:54:58;;;;;;;28.40;18.43;;;;;;;6.19;100.00;100112.58;1495447;87;21419;-84
2022/11/04 04:57:24;;;;;;;31.87;21.80;;;;;;;6.15;100.00;100113.78;1486513;87;21419;-84
2022/11/04 04:59:50;;;;;;;28.90;18.67;;;;;;;6.16;100.00;100114.61;1485722;87;21390;-84
2022/11/04 05:02:16;;;;;;;30.50;20.67;;;;;;;6.17;100.00;100116.30;1491839;87;21406;-84
2022/11/04 05:04:42;;;;;;;33.13;20.10;;;;;;;6.13;100.00;100118.34;1485649;86;21486;-84
2022/11/04 05:07:08;;;;;;;29.40;20.37;;;;;;;6.14;100.00;100118.69;1492861;87;21508;-85
2022/11/04 05:09:36;;;;;;;29.40;20.33;;;;;;;6.13;100.00;100119.66;1493538;87;21433;-83
2022/11/04 05:12:02;;;;;;;31.80;23.03;;;;;;;6.09;100.00;100119.05;1480501;87;21484;-85
2022/11/04 05:14:29;;;;;;;28.40;20.00;;;;;;;6.04;100.00;100113.83;1490778;87;21434;-85
2022/11/04 05:16:55;;;;;;;34.50;20.43;;;;;;;6.03;100.00;100113.00;1485684;87;21559;-85
2022/11/04 05:19:21;;;;;;;30.03;17.67;;;;;;;6.04;100.00;100111.20;1486180;87;22677;-85
2022/11/04 05:21:47;;;;;;;30.83;17.37;;;;;;;6.04;100.00;100105.95;1493021;87;21621;-85
2022/11/04 05:24:14;;;;;;;31.37;19.27;;;;;;;6.04;100.00;100105.95;1486176;86;21493;-85
2022/11/04 05:26:40;;;;;;;31.43;18.57;;;;;;;6.04;100.00;100105.95;1495751;87;22709;-85
2022/11/04 05:29:06;;;;;;;41.50;19.57;;;;;;;6.01;100.00;100108.83;1499277;87;21370;-85
2022/11/04 05:31:32;;;;;;;35.03;22.03;;;;;;;5.98;100.00;100114.33;1490674;86;22276;-86
2022/11/04 05:33:58;;;;;;;32.87;21.90;;;;;;;5.96;100.00;100116.27;1482965;86;21515;-85
2022/11/04 05:36:25;;;;;;;33.73;20.80;;;;;;;5.95;100.00;100112.78;1501094;86;21500;-85
2022/11/04 05:38:54;;;;;;;36.80;21.67;;;;;;;5.99;100.00;100110.77;1489259;87;21426;-85
2022/11/04 05:41:27;;;;;;;35.70;20.33;;;;;;;6.02;100.00;100111.34;1478098;87;21942;-84
2022/11/04 05:44:00;;;;;;;31.33;21.43;;;;;;;6.06;100.00;100117.17;1471365;87;22101;-85
2022/11/04 05:46:27;;;;;;;32.90;19.10;;;;;;;6.13;100.00;100113.09;1492323;87;21443;-84
2022/11/04 05:48:54;;;;;;;30.60;18.13;;;;;;;6.16;100.00;100118.09;1493539;87;21413;-86
2022/11/04 05:51:25;;;;;;;33.40;19.27;;;;;;;6.16;100.00;100115.92;1480436;87;21404;-85
2022/11/04 05:53:51;;;;;;;32.67;20.02;;;;;;;6.20;100.00;100116.87;1493710;86;22254;-84
2022/11/04 05:56:18;;;;;;;31.53;19.40;;;;;;;6.23;100.00;100110.04;1487786;87;21419;-84
2022/11/04 05:58:44;;;;;;;33.17;20.87;;;;;;;6.27;100.00;100099.64;1490815;87;21628;-86
2022/11/04 06:01:30;;;;;;;33.27;21.17;;;;;;;6.27;100.00;100100.95;1489251;86;22277;-85
2022/11/04 06:03:58;;;;;;;30.83;18.03;;;;;;;6.31;100.00;100106.30;1479525;87;22409;-82
2022/11/04 06:06:28;;;;;;;34.90;20.53;;;;;;;6.37;100.00;100094.92;1501229;87;22261;-86
2022/11/04 06:08:54;;;;;;;31.37;19.33;;;;;;;6.41;100.00;100104.20;1481519;87;21433;-86
2022/11/04 06:11:23;;;;;;;30.07;18.90;;;;;;;6.45;100.00;100104.32;1486937;86;22306;-86
2022/11/04 06:13:49;;;;;;;31.93;19.00;;;;;;;6.53;100.00;100101.85;1497943;87;21509;-87
2022/11/04 06:16:16;;;;;;;33.97;19.07;;;;;;;6.62;100.00;100104.19;1484260;87;22316;-84
2022/11/04 06:18:42;;;;;;;35.83;21.40;;;;;;;6.71;100.00;100110.00;1486466;87;21375;-84
2022/11/04 06:21:21;;;;;;;33.50;19.20;;;;;;;6.78;100.00;100114.59;1465163;87;22320;-86
2022/11/04 06:23:48;;;;;;;29.00;19.47;;;;;;;6.83;100.00;100117.33;1492872;87;21435;-84
2022/11/04 06:26:15;;;;;;;34.27;21.37;;;;;;;6.89;100.00;100121.58;1485501;87;22360;-87
2022/11/04 06:28:42;;;;;;;34.10;18.27;;;;;;;6.97;100.00;100112.55;1489974;86;22258;-83
2022/11/04 06:31:11;;;;;;;29.77;18.30;;;;;;;7.08;100.00;100105.50;1493461;87;21464;-84
2022/11/04 06:33:38;;;;;;;27.30;18.57;;;;;;;7.19;100.00;100103.63;1493919;86;22369;-83
2022/11/04 06:36:06;;;;;;;40.27;19.50;;;;;;;7.30;100.00;100104.48;1485644;86;21296;-83
2022/11/04 06:38:36;;;;;;;31.53;18.63;;;;;;;7.39;100.00;100099.27;1490042;87;21451;-85
2022/11/04 06:41:08;;;;;;;37.67;19.37;;;;;;;7.50;100.00;100100.09;1495063;86;21521;-88
2022/11/04 06:43:34;;;;;;;36.63;22.10;;;;;;;7.58;100.00;100091.86;1485379;86;21311;-88
2022/11/04 06:46:02;;;;;;;38.00;21.23;;;;;;;7.68;100.00;100094.04;1487893;87;22279;-88
2022/11/04 06:48:30;;;;;;;33.30;19.33;;;;;;;7.73;100.00;100101.51;1494829;87;21369;-86
2022/11/04 06:50:58;;;;;;;30.70;18.97;;;;;;;7.80;100.00;100100.50;1473196;87;21362;-83
2022/11/04 06:53:25;;;;;;;27.17;18.23;;;;;;;7.88;100.00;100094.89;1497709;86;22023;-83
2022/11/04 06:55:53;;;;;;;29.53;16.47;;;;;;;7.97;100.00;100094.54;1491344;86;21310;-84
2022/11/04 06:58:19;;;;;;;24.53;15.67;;;;;;;8.07;100.00;100083.49;1478129;87;22234;-84
2022/11/04 07:00:52;;;;;;;28.00;17.50;;;;;;;8.13;100.00;100082.93;1493423;86;21495;-85
2022/11/04 07:03:19;;;;;;;32.43;19.60;;;;;;;8.17;100.00;100081.33;1490849;87;22140;-82
2022/11/04 07:05:45;;;;;;;31.67;18.70;;;;;;;8.22;100.00;100077.79;1481597;87;22191;-85
2022/11/04 07:08:12;;;;;;;25.13;16.17;;;;;;;8.25;100.00;100073.06;1500471;86;21399;-89
2022/11/04 07:10:37;;;;;;;29.57;17.17;;;;;;;8.31;100.00;100075.62;1488002;86;21376;-87
2022/11/04 07:13:04;;;;;;;28.27;17.47;;;;;;;8.36;100.00;100069.44;1486929;86;21690;-87
2022/11/04 07:15:31;;;;;;;24.40;16.93;;;;;;;8.42;100.00;100064.95;1487333;87;21376;-86
2022/11/04 07:17:59;;;;;;;22.10;14.27;;;;;;;8.47;100.00;100061.40;1487713;86;21325;-84
2022/11/04 07:20:25;;;;;;;25.43;14.83;;;;;;;8.49;100.00;100057.31;1487364;87;21354;-89
2022/11/04 07:22:53;;;;;;;31.10;16.53;;;;;;;8.52;100.00;100049.94;1501371;86;21456;-87
2022/11/04 07:25:19;;;;;;;21.10;15.57;;;;;;;8.55;100.00;100045.69;1474370;86;22660;-83
2022/11/04 07:27:46;;;;;;;25.10;16.20;;;;;;;8.59;100.00;100035.19;1477619;86;21988;-86
2022/11/04 07:30:12;;;;;;;30.40;17.37;;;;;;;8.61;100.00;100036.87;1477731;86;23268;-83
2022/11/04 07:32:38;;;;;;;24.97;16.60;;;;;;;8.69;100.00;100034.31;1471956;86;21412;-82
2022/11/04 07:35:07;;;;;;;34.97;17.37;;;;;;;8.78;100.00;100033.47;1477752;86;21427;-83
2022/11/04 07:37:33;;;;;;;26.43;16.53;;;;;;;8.88;100.00;100026.81;1519368;86;21314;-87
2022/11/04 07:39:59;;;;;;;25.53;17.23;;;;;;;8.97;100.00;100029.39;1510497;85;21448;-85
2022/11/04 07:42:25;;;;;;;28.23;18.37;;;;;;;9.10;100.00;100031.70;1483870;85;21526;-87
2022/11/04 07:44:51;;;;;;;27.23;16.83;;;;;;;9.18;100.00;100029.66;1499732;85;21390;-87
2022/11/04 07:47:17;;;;;;;24.40;16.77;;;;;;;9.23;100.00;100030.84;1477455;87;21420;-86
2022/11/04 07:49:43;;;;;;;27.10;16.93;;;;;;;9.29;100.00;100025.45;1482438;87;21478;-88
2022/11/04 07:52:09;;;;;;;26.63;15.97;;;;;;;9.36;100.00;100027.03;1487518;87;21302;-87
2022/11/04 07:54:35;;;;;;;25.30;15.57;;;;;;;9.43;100.00;100020.98;1483028;87;21389;-84
2022/11/04 07:57:01;;;;;;;23.00;16.70;;;;;;;9.54;99.71;100025.71;1477939;87;21308;-88
2022/11/04 07:59:27;;;;;;;27.73;17.77;;;;;;;9.69;99.51;100025.52;1486673;87;22365;-87
2022/11/04 08:01:53;;;;;;;28.87;17.73;;;;;;;9.75;97.78;100023.58;1491448;87;21404;-88
2022/11/04 08:04:19;;;;;;;34.37;19.73;;;;;;;9.86;97.94;100024.67;1501352;87;21280;-87
2022/11/04 08:06:45;;;;;;;28.00;17.70;;;;;;;9.99;98.25;100024.30;1490164;87;21309;-88
2022/11/04 08:09:11;;;;;;;23.27;16.97;;;;;;;10.15;98.56;100023.56;1482313;87;21397;-87
2022/11/04 08:11:37;;;;;;;30.63;17.47;;;;;;;10.27;97.91;100027.67;1486252;87;21396;-88
2022/11/04 08:14:04;;;;;;;24.90;15.33;;;;;;;10.39;97.11;100014.52;1487231;87;21507;-88
2022/11/04 08:16:30;;;;;;;24.53;15.63;;;;;;;10.57;96.60;100013.12;1494574;86;21382;-77
2022/11/04 08:19:01;;;;;;;23.53;14.27;;;;;;;10.76;96.89;100013.38;1497282;87;21866;-76
2022/11/04 08:21:32;;;;;;;25.37;16.30;;;;;;;10.95;94.53;100010.14;1493073;86;21316;-79
2022/11/04 08:24:04;;;;;;;22.23;15.70;;;;;;;11.07;93.62;100007.02;1513054;87;21368;-87
2022/11/04 08:26:30;;;;;;;33.73;21.80;;;;;;;11.14;92.19;100005.08;1484204;87;21322;-85
2022/11/04 08:28:56;;;;;;;31.40;19.87;;;;;;;11.15;91.16;100006.22;1497828;86;21360;-87
2022/11/04 08:31:27;;;;;;;43.40;28.50;;;;;;;11.18;91.12;100001.11;1476704;87;21400;-87
2022/11/04 08:33:55;;;;;;;28.45;18.30;;;;;;;11.20;89.97;99991.19;1497236;86;21382;-88
2022/11/04 08:36:33;;;;;;;26.60;16.37;;;;;;;11.25;89.67;100000.80;1493772;86;22246;-87
2022/11/04 08:38:59;;;;;;;28.73;20.10;;;;;;;11.35;90.44;100003.30;1473610;87;21324;-86
2022/11/04 08:41:29;;;;;;;31.80;20.47;;;;;;;11.42;88.53;100004.28;1478676;87;22579;-87
2022/11/04 08:43:59;;;;;;;42.97;27.53;;;;;;;11.46;88.24;100005.64;1489609;87;22431;-85
2022/11/04 08:46:28;;;;;;;30.73;20.27;;;;;;;11.50;87.34;99993.70;1484353;87;22070;-87
2022/11/04 08:48:54;;;;;;;23.40;16.73;;;;;;;11.53;86.84;99984.09;1476392;87;21309;-86
2022/11/04 08:51:24;;;;;;;34.97;19.17;;;;;;;11.58;86.49;99984.94;1488227;87;22307;-87
2022/11/04 08:53:50;;;;;;;62.97;38.03;;;;;;;11.62;87.15;99978.30;1472292;87;21427;-86
2022/11/04 08:56:27;;;;;;;26.47;18.67;;;;;;;11.55;85.56;99979.47;1493684;87;22225;-87
2022/11/04 08:58:54;;;;;;;30.30;16.17;;;;;;;11.63;86.00;99976.00;1485696;87;22021;-87
2022/11/04 09:01:22;;;;;;;19.80;15.10;;;;;;;11.75;87.00;99974.17;1484816;87;21404;-86
2022/11/04 09:03:48;;;;;;;34.03;23.80;;;;;;;11.86;86.43;99966.92;1485167;87;21456;-87
2022/11/04 09:06:22;;;;;;;32.70;21.33;;;;;;;11.93;85.04;99965.23;1483932;87;21857;-85
2022/11/04 09:08:51;;;;;;;21.47;15.53;;;;;;;12.02;84.70;99972.18;1485726;87;21381;-86
2022/11/04 09:11:17;;;;;;;23.50;15.63;;;;;;;12.10;82.21;99970.84;1490477;87;21315;-86
2022/11/04 09:13:43;;;;;;;24.70;15.47;;;;;;;12.17;82.91;99969.70;1489629;87;22225;-86
2022/11/04 09:16:12;;;;;;;23.63;16.93;;;;;;;12.22;83.15;99975.80;1481883;87;21607;-85
2022/11/04 09:18:39;;;;;;;25.70;14.90;;;;;;;12.25;80.04;99972.81;1481035;87;22292;-86
2022/11/04 09:21:08;;;;;;;20.87;14.60;;;;;;;12.28;80.70;99975.12;1472636;87;21278;-84
2022/11/04 09:23:34;;;;;;;23.80;15.57;;;;;;;12.27;80.51;99970.83;1477797;87;21582;-87
2022/11/04 09:26:11;;;;;;;23.40;14.97;;;;;;;12.32;81.43;99977.78;1492346;87;21382;-86
2022/11/04 09:28:39;;;;;;;24.60;16.43;;;;;;;12.39;79.77;99965.47;1487521;87;21367;-86
2022/11/04 09:31:13;;;;;;;26.17;15.83;;;;;;;12.59;79.62;99972.04;1490226;87;21353;-84
2022/11/04 09:33:40;;;;;;;22.27;16.10;;;;;;;12.97;79.81;99966.06;1493254;87;22321;-82
2022/11/04 09:36:08;;;;;;;25.20;17.47;;;;;;;13.23;78.13;99957.77;1481369;87;22572;-87
2022/11/04 09:38:36;;;;;;;23.57;17.60;;;;;;;13.39;76.73;99951.56;1483301;87;21456;-87
2022/11/04 09:41:29;;;;;;;30.33;19.93;;;;;;;13.56;75.72;99949.10;1479890;87;22247;-87
2022/11/04 09:44:28;;;;;;;26.47;17.50;;;;;;;13.54;75.07;99947.11;1490712;87;21442;-87
2022/11/04 09:47:01;;;;;;;23.27;16.57;;;;;;;13.77;74.22;99945.76;1489597;87;21455;-85
2022/11/04 09:49:33;;;;;;;21.57;14.27;;;;;;;14.41;73.74;99932.80;1481876;87;21302;-85
2022/11/04 09:52:04;;;;;;;21.87;15.33;;;;;;;14.75;72.92;99927.91;1493782;87;21545;-87
2022/11/04 09:54:36;;;;;;;22.40;15.23;;;;;;;14.81;70.41;99917.32;1483380;87;21577;-87
2022/11/04 09:57:03;;;;;;;23.30;15.07;;;;;;;14.96;71.21;99911.98;1496487;87;22254;-86
2022/11/04 09:59:33;;;;;;;24.63;15.10;;;;;;;15.23;72.09;99903.73;1488706;87;21257;-87
2022/11/04 10:02:20;;;;;;;24.90;14.60;;;;;;;15.37;70.25;99902.02;1480145;87;21316;-86
2022/11/04 10:05:06;;;;;;;18.37;13.70;;;;;;;15.62;70.67;99890.41;1484212;87;21478;-87
2022/11/04 10:08:09;;;;;;;25.88;13.58;;;;;;;15.88;68.51;99884.98;1484760;87;21324;-86
2022/11/04 10:10:56;;;;;;;20.57;13.10;;;;;;;16.15;67.49;99883.31;1491711;87;21494;-88
2022/11/04 10:13:40;;;;;;;19.12;13.60;;;;;;;16.14;66.59;99889.17;1477693;87;21493;-87
2022/11/04 10:16:18;;;;;;;19.90;13.18;;;;;;;16.16;66.90;99880.44;1485109;87;21655;-88
2022/11/04 10:19:13;;;;;;;19.70;13.95;;;;;;;16.07;66.46;99884.30;1479004;87;22145;-84
2022/11/04 10:22:00;;;;;;;22.27;14.83;;;;;;;16.04;66.54;99874.01;1494447;87;22232;-88
2022/11/04 10:24:42;;;;;;;19.62;13.68;;;;;;;15.93;63.82;99880.71;1489286;87;21404;-85
2022/11/04 10:27:22;;;;;;;19.65;12.37;;;;;;;16.03;66.12;99876.38;1491479;87;21448;-87
2022/11/04 10:29:58;;;;;;;;;;;;;;;16.04;62.06;99875.34;1485576;87;21302;-87
2022/11/04 10:32:32;;;;;;;18.73;12.50;;;;;;;15.78;61.92;99871.48;1481614;87;20259;-86
2022/11/04 10:35:14;;;;;;;17.37;12.55;;;;;;;15.85;65.40;99868.03;1487150;87;21626;-88
2022/11/04 10:37:40;;;;;;;18.87;12.88;;;;;;;15.71;63.50;99853.81;1486528;87;21515;-86
2022/11/04 10:40:35;;;;;;;17.23;12.50;;;;;;;15.81;65.97;99850.78;1487808;87;21552;-88
2022/11/04 10:43:04;;;;;;;18.45;11.70;;;;;;;15.83;65.57;99844.23;1487862;87;21428;-88
2022/11/04 10:45:56;;;;;;;21.12;12.80;;;;;;;15.96;65.17;99850.14;1493169;87;22151;-86
2022/11/04 10:48:30;;;;;;;20.12;12.15;;;;;;;16.26;65.85;99845.39;1485752;87;22361;-80
2022/11/04 10:50:58;;;;;;;20.02;12.28;;;;;;;16.31;65.03;99844.77;1495070;87;22240;-85
2022/11/04 10:53:31;;;;;;;18.52;12.73;;;;;;;16.36;64.90;99832.98;1482014;87;21411;-84
2022/11/04 10:56:34;;;;;;;22.58;13.28;;;;;;;16.36;64.37;99827.64;1473441;87;21541;-85
2022/11/04 10:59:05;;;;;;;22.05;12.50;;;;;;;16.48;63.95;99828.70;1483065;87;21375;-81
2022/11/04 11:01:34;;;;;;;21.95;13.30;;;;;;;16.59;63.93;99824.12;1481751;87;21552;-82
2022/11/04 11:04:02;;;;;;;25.97;17.32;;;;;;;16.66;63.21;99820.97;1490136;87;21404;-81
2022/11/04 11:06:35;;;;;;;23.85;16.45;;;;;;;16.90;63.58;99812.09;1486702;87;21515;-84
2022/11/04 11:09:28;;;;;;;17.80;11.38;;;;;;;17.18;63.03;99803.08;1486735;87;21382;-81
2022/11/04 11:11:58;;;;;;;17.90;12.30;;;;;;;17.56;60.14;99805.40;1488063;87;21383;-81
2022/11/04 11:14:33;;;;;;;16.05;11.53;;;;;;;17.89;60.43;99793.81;1481041;87;21323;-81
2022/11/04 11:17:22;;;;;;;21.23;11.68;;;;;;;18.28;58.83;99793.89;1492187;87;21396;-80
2022/11/04 11:20:01;;;;;;;18.12;13.13;;;;;;;18.28;58.83;99793.89;1414309;92;21569;-80
2022/11/04 11:22:40;;;;;;;20.32;12.15;;;;;;;18.43;59.05;99787.20;1418877;92;21482;-80
2022/11/04 11:25:34;;;;;;;15.63;11.17;;;;;;;18.67;58.82;99788.81;1411453;92;21525;-81
2022/11/04 11:28:07;;;;;;;17.67;11.68;;;;;;;18.88;54.39;99785.83;1414378;92;21428;-81
2022/11/04 11:30:48;;;;;;;18.02;10.70;;;;;;;19.06;55.59;99778.89;1390559;94;21740;-81
2022/11/04 11:33:33;;;;;;;14.95;11.12;;;;;;;19.06;52.81;99779.70;1374592;95;22368;-82
2022/11/04 11:36:13;;;;;;;12.90;10.13;;;;;;;19.15;52.78;99782.94;1414713;92;21428;-86
2022/11/04 11:39:04;;;;;;;13.80;10.35;;;;;;;19.27;55.60;99777.14;1399050;93;21524;-87
2022/11/04 11:41:35;;;;;;;14.07;11.45;;;;;;;19.00;52.03;99769.04;1421084;92;21603;-87
2022/11/04 11:44:08;;;;;;;22.87;11.80;;;;;;;19.20;54.19;99768.35;1400469;93;21644;-86
2022/11/04 11:46:36;;;;;;;14.43;10.40;;;;;;;19.30;52.63;99763.28;1417633;92;21544;-86
2022/11/04 11:49:05;;;;;;;16.65;10.30;;;;;;;19.50;54.17;99752.89;1381471;94;21858;-86
2022/11/04 11:51:38;;;;;;;20.77;11.20;;;;;;;19.60;54.43;99750.52;1476358;87;21548;-88
2022/11/04 11:54:09;;;;;;;19.62;11.12;;;;;;;19.60;51.70;99749.18;1486710;87;21411;-87
2022/11/04 11:56:42;;;;;;;21.65;10.03;;;;;;;19.67;53.53;99743.23;1480307;87;21397;-87
2022/11/04 11:59:17;;;;;;;13.75;10.50;;;;;;;19.61;52.99;99737.39;1499676;87;21448;-87
2022/11/04 12:02:02;;;;;;;20.20;10.25;;;;;;;19.58;52.64;99737.31;1487615;87;21588;-88
2022/11/04 12:04:29;;;;;;;18.45;9.15;;;;;;;19.57;52.79;99728.97;1493228;86;21448;-88
2022/11/04 12:07:26;;;;;;;13.88;8.83;;;;;;;19.58;53.49;99729.79;1512497;85;21404;-88
2022/11/04 12:10:13;;;;;;;18.07;10.35;;;;;;;19.51;52.35;99732.55;1452703;86;21313;-87